Time;durP1;ratioP1;P1;durP2;ratioP2;P2;SDS_P1;SDS_P2;PMS_P1;PMS_P2;Temp;Humidity;BMP_temperature;BMP_pressure;BME280_temperature;BME280_humidity;BME280_pressure;Samples;Min_cycle;Max_cycle;Signal;HPM_P1;HPM_P2
2022/11/09 00:02:35;;;;;;;6.60;2.85;;;14.00;99.90;;;;;;6154484;28;20051;-83
2022/11/09 00:05:37;;;;;;;6.45;2.47;;;14.00;99.90;;;;;;6153908;28;20058;-82
2022/11/09 00:08:41;;;;;;;8.43;3.30;;;14.00;99.90;;;;;;6154220;28;20062;-82
2022/11/09 00:11:43;;;;;;;6.82;2.75;;;14.00;99.90;;;;;;6154650;29;20055;-83
2022/11/09 00:14:45;;;;;;;9.15;3.08;;;14.00;99.90;;;;;;6154251;28;20047;-83
2022/11/09 00:17:46;;;;;;;8.05;3.47;;;14.00;99.90;;;;;;6153846;28;20051;-83
2022/11/09 00:20:48;;;;;;;7.25;3.35;;;14.00;99.90;;;;;;6153427;28;20125;-83
2022/11/09 00:23:52;;;;;;;6.43;2.42;;;14.10;99.90;;;;;;6153526;29;20393;-82
2022/11/09 00:26:53;;;;;;;26.38;12.57;;;14.00;99.90;;;;;;6153225;28;20047;-83
2022/11/09 00:29:55;;;;;;;12.00;5.90;;;14.00;99.90;;;;;;6153115;28;20051;-83
2022/11/09 00:32:57;;;;;;;6.50;4.22;;;14.00;99.90;;;;;;6153746;28;20074;-82
2022/11/09 00:35:58;;;;;;;11.55;4.18;;;14.00;99.90;;;;;;6154766;28;20051;-83
2022/11/09 00:39:01;;;;;;;8.25;4.53;;;13.90;99.90;;;;;;6153015;29;20039;-82
2022/11/09 00:42:03;;;;;;;10.15;4.05;;;13.90;99.90;;;;;;6152689;28;20055;-82
2022/11/09 00:45:06;;;;;;;10.02;4.60;;;14.00;99.90;;;;;;6153514;28;20055;-82
2022/11/09 00:48:08;;;;;;;9.68;4.30;;;14.00;99.90;;;;;;6152883;28;20062;-83
2022/11/09 00:51:10;;;;;;;10.65;4.28;;;13.90;99.90;;;;;;6155414;29;20062;-83
2022/11/09 00:54:13;;;;;;;14.20;5.22;;;13.80;99.90;;;;;;6153390;28;20043;-83
2022/11/09 00:57:15;;;;;;;11.88;5.45;;;13.70;99.90;;;;;;6152662;28;20051;-83
2022/11/09 01:00:17;;;;;;;7.78;4.60;;;13.70;99.90;;;;;;6152727;28;20058;-82
2022/11/09 01:03:19;;;;;;;11.40;4.22;;;13.70;99.90;;;;;;6153666;28;20755;-83
2022/11/09 01:06:23;;;;;;;7.07;3.95;;;13.60;99.90;;;;;;6154012;28;20070;-83
2022/11/09 01:09:26;;;;;;;8.32;4.57;;;13.60;99.90;;;;;;6153029;28;20047;-83
2022/11/09 01:12:28;;;;;;;18.40;4.40;;;13.50;99.90;;;;;;6153770;28;20047;-82
2022/11/09 01:15:30;;;;;;;11.13;5.68;;;13.40;99.90;;;;;;6153815;29;20055;-83
2022/11/09 01:18:32;;;;;;;7.30;4.95;;;13.40;99.90;;;;;;6151408;28;20043;-82
2022/11/09 01:21:33;;;;;;;14.30;4.78;;;13.40;99.90;;;;;;6152932;28;20047;-83
2022/11/09 01:24:36;;;;;;;13.43;5.30;;;13.40;99.90;;;;;;6153182;28;20043;-83
2022/11/09 01:27:38;;;;;;;13.57;5.78;;;13.50;99.90;;;;;;6153804;29;20057;-83
2022/11/09 01:30:42;;;;;;;13.30;6.25;;;13.50;99.90;;;;;;6153019;28;20055;-82
2022/11/09 01:33:44;;;;;;;8.52;4.85;;;13.50;99.90;;;;;;6149121;28;20055;-82
2022/11/09 01:36:49;;;;;;;10.07;6.55;;;13.50;99.90;;;;;;6152253;28;20425;-83
2022/11/09 01:39:52;;;;;;;14.15;5.35;;;13.60;99.90;;;;;;6152030;28;20043;-82
2022/11/09 01:42:54;;;;;;;13.65;5.60;;;13.60;99.90;;;;;;6152916;28;20070;-83
2022/11/09 01:45:59;;;;;;;9.55;4.93;;;13.60;99.90;;;;;;6155021;28;20421;-82
2022/11/09 01:49:03;;;;;;;16.05;5.50;;;13.60;99.90;;;;;;6156649;28;20433;-83
2022/11/09 01:52:12;;;;;;;15.85;5.57;;;13.60;99.90;;;;;;6156818;28;20050;-83
2022/11/09 01:55:16;;;;;;;;;;;13.50;99.90;;;;;;6157919;29;20055;-84
2022/11/09 01:58:22;;;;;;;10.18;4.80;;;13.60;99.90;;;;;;6153125;28;19929;-82
2022/11/09 02:01:25;;;;;;;12.10;5.82;;;13.60;99.90;;;;;;6157281;28;20047;-82
2022/11/09 02:04:30;;;;;;;12.65;5.53;;;13.50;99.90;;;;;;6157425;28;20047;-83
2022/11/09 02:07:33;;;;;;;9.80;3.72;;;13.50;99.90;;;;;;6157782;29;20067;-82
2022/11/09 02:10:41;;;;;;;11.23;4.93;;;13.40;99.90;;;;;;6156129;28;20517;-82
2022/11/09 02:13:48;;;;;;;9.68;4.70;;;13.30;99.90;;;;;;6156666;28;20051;-83
2022/11/09 02:16:50;;;;;;;14.77;4.93;;;13.20;99.90;;;;;;6157003;28;20051;-83
2022/11/09 02:19:52;;;;;;;14.27;4.78;;;13.30;99.90;;;;;;6156107;28;20062;-83
2022/11/09 02:22:55;;;;;;;10.82;5.03;;;13.20;99.90;;;;;;6157543;28;20047;-83
2022/11/09 02:26:00;;;;;;;15.85;5.32;;;13.20;99.90;;;;;;6156205;28;20047;-83
2022/11/09 02:29:05;;;;;;;12.57;5.30;;;13.30;99.90;;;;;;6156113;28;20047;-83
2022/11/09 02:32:12;;;;;;;13.77;4.68;;;13.30;99.90;;;;;;6155964;28;20051;-83
2022/11/09 02:35:14;;;;;;;10.73;4.88;;;13.30;99.90;;;;;;6156453;29;20109;-83
2022/11/09 02:38:17;;;;;;;8.63;5.18;;;13.30;99.90;;;;;;6154821;28;20054;-82
2022/11/09 02:41:20;;;;;;;9.43;4.05;;;13.30;99.90;;;;;;6152730;28;20047;-84
2022/11/09 02:44:23;;;;;;;8.48;4.22;;;13.30;99.90;;;;;;6151800;28;20047;-84
2022/11/09 02:47:25;;;;;;;13.38;5.25;;;13.30;99.90;;;;;;6151447;29;20051;-84
2022/11/09 02:50:27;;;;;;;14.38;4.43;;;13.30;99.90;;;;;;6151675;28;20055;-83
2022/11/09 02:53:30;;;;;;;16.27;5.80;;;13.30;99.90;;;;;;6151526;28;20051;-83
2022/11/09 02:56:32;;;;;;;18.58;5.15;;;13.30;99.90;;;;;;6150410;28;20063;-83
2022/11/09 02:59:34;;;;;;;18.58;4.57;;;13.30;99.90;;;;;;6150339;28;20047;-82
2022/11/09 03:02:36;;;;;;;8.90;4.20;;;13.40;99.90;;;;;;6150961;28;20050;-84
2022/11/09 03:05:38;;;;;;;35.20;6.05;;;13.40;99.90;;;;;;6151030;28;20054;-83
2022/11/09 03:08:41;;;;;;;9.55;3.92;;;13.50;99.90;;;;;;6150505;28;20687;-84
2022/11/09 03:11:43;;;;;;;14.73;4.80;;;13.50;99.90;;;;;;6151759;29;20046;-83
2022/11/09 03:14:44;;;;;;;10.55;5.20;;;13.60;99.90;;;;;;6150459;28;20054;-83
2022/11/09 03:17:46;;;;;;;10.40;4.93;;;13.60;99.90;;;;;;6150245;28;20047;-82
2022/11/09 03:20:48;;;;;;;10.80;4.97;;;13.60;99.90;;;;;;6150390;28;20051;-84
2022/11/09 03:23:52;;;;;;;6.70;4.20;;;13.60;99.90;;;;;;6151041;29;20051;-84
2022/11/09 03:26:54;;;;;;;10.70;3.40;;;13.70;99.90;;;;;;6150190;28;20397;-84
2022/11/09 03:29:56;;;;;;;10.38;4.20;;;13.80;99.90;;;;;;6150664;28;20050;-84
2022/11/09 03:32:58;;;;;;;8.68;4.15;;;13.90;99.90;;;;;;6150363;28;20047;-84
2022/11/09 03:36:00;;;;;;;9.45;4.60;;;13.90;99.90;;;;;;6150590;28;20055;-84
2022/11/09 03:39:03;;;;;;;7.53;4.10;;;13.90;99.90;;;;;;6150390;28;20043;-83
2022/11/09 03:42:05;;;;;;;7.38;3.80;;;14.00;99.90;;;;;;6149966;28;20051;-83
2022/11/09 03:45:08;;;;;;;5.30;3.03;;;14.00;99.90;;;;;;6149960;28;20055;-84
2022/11/09 03:48:09;;;;;;;6.85;3.38;;;14.00;99.90;;;;;;6150479;28;20058;-84
2022/11/09 03:51:11;;;;;;;6.90;3.35;;;14.00;99.90;;;;;;6150212;28;20055;-84
2022/11/09 03:54:14;;;;;;;6.57;2.97;;;14.00;99.90;;;;;;6149900;28;20058;-84
2022/11/09 03:57:16;;;;;;;5.32;2.80;;;14.00;99.90;;;;;;6149384;28;20047;-84
2022/11/09 04:00:19;;;;;;;16.02;3.33;;;14.00;99.90;;;;;;6148441;28;20047;-84
2022/11/09 04:03:21;;;;;;;8.02;2.95;;;14.10;99.90;;;;;;6150109;29;20055;-84
2022/11/09 04:06:22;;;;;;;6.50;2.78;;;14.10;99.90;;;;;;6150006;28;20054;-82
2022/11/09 04:09:25;;;;;;;8.30;2.50;;;14.10;99.90;;;;;;6148884;28;20047;-83
2022/11/09 04:12:27;;;;;;;6.47;2.33;;;14.10;99.90;;;;;;6149569;28;20043;-83
2022/11/09 04:15:29;;;;;;;5.72;1.95;;;14.10;99.90;;;;;;6150089;28;20054;-83
2022/11/09 04:18:30;;;;;;;5.10;2.22;;;14.10;99.90;;;;;;6148907;28;20047;-83
2022/11/09 04:21:33;;;;;;;4.20;2.40;;;14.10;99.90;;;;;;6149840;28;20047;-84
2022/11/09 04:24:36;;;;;;;7.05;2.67;;;14.10;99.90;;;;;;6150114;28;20375;-83
2022/11/09 04:27:37;;;;;;;6.68;1.98;;;14.20;99.90;;;;;;6149685;28;20059;-83
2022/11/09 04:30:39;;;;;;;6.35;1.33;;;14.20;99.90;;;;;;6149115;28;20055;-83
2022/11/09 04:33:41;;;;;;;5.97;1.75;;;14.20;99.90;;;;;;6149170;28;20065;-84
2022/11/09 04:36:43;;;;;;;7.88;1.90;;;14.20;99.90;;;;;;6148943;28;20055;-83
2022/11/09 04:39:46;;;;;;;3.10;1.38;;;14.20;99.90;;;;;;6149161;28;20058;-83
2022/11/09 04:42:48;;;;;;;3.65;1.50;;;14.10;99.90;;;;;;6149804;28;20051;-83
2022/11/09 04:45:49;;;;;;;4.18;1.50;;;14.20;99.90;;;;;;6148939;28;20497;-83
2022/11/09 04:48:51;;;;;;;3.25;1.13;;;14.20;99.90;;;;;;6149636;28;20062;-83
2022/11/09 04:51:53;;;;;;;2.92;1.00;;;14.20;99.90;;;;;;6149272;29;20051;-83
2022/11/09 04:54:56;;;;;;;2.72;1.27;;;14.30;99.90;;;;;;6149621;28;20051;-83
2022/11/09 04:57:57;;;;;;;7.03;1.40;;;14.30;99.90;;;;;;6148752;28;20047;-83
2022/11/09 05:01:03;;;;;;;4.72;1.35;;;14.30;99.90;;;;;;6149799;28;20063;-83
2022/11/09 05:04:04;;;;;;;5.07;1.13;;;14.20;99.90;;;;;;6148859;28;20573;-84
2022/11/09 05:07:06;;;;;;;1.67;0.90;;;14.30;99.90;;;;;;6149841;29;20159;-83
2022/11/09 05:10:09;;;;;;;2.10;1.13;;;14.40;99.90;;;;;;6149141;28;20051;-83
2022/11/09 05:13:13;;;;;;;2.78;0.80;;;14.40;99.90;;;;;;6149245;28;20055;-82
2022/11/09 05:16:16;;;;;;;3.10;1.30;;;14.40;99.90;;;;;;6149734;28;20424;-83
2022/11/09 05:19:18;;;;;;;5.65;1.70;;;14.50;99.90;;;;;;6154549;28;20105;-83
2022/11/09 05:25:40;;;;;;;5.95;2.10;;;14.50;99.90;;;;;;6156796;28;20075;-83
2022/11/09 05:28:42;;;;;;;4.40;1.45;;;14.60;99.90;;;;;;6155504;28;20054;-84
2022/11/09 05:31:45;;;;;;;6.38;2.05;;;14.60;99.90;;;;;;6153245;29;20055;-84
2022/11/09 05:34:47;;;;;;;4.85;1.90;;;14.60;99.90;;;;;;6153126;28;20130;-83
2022/11/09 05:37:49;;;;;;;25.80;2.17;;;14.60;99.90;;;;;;6153240;28;20054;-84
2022/11/09 05:40:53;;;;;;;5.85;1.63;;;14.60;99.90;;;;;;6153715;28;20059;-83
2022/11/09 05:43:54;;;;;;;8.00;1.65;;;14.50;99.90;;;;;;6153695;29;20051;-82
2022/11/09 05:46:56;;;;;;;9.07;2.05;;;14.50;99.90;;;;;;6152436;28;20062;-83
2022/11/09 05:49:58;;;;;;;2.88;1.70;;;14.40;99.90;;;;;;6152217;28;20039;-82
2022/11/09 05:53:00;;;;;;;4.72;1.92;;;14.40;99.90;;;;;;6153780;28;20051;-82
2022/11/09 05:56:04;;;;;;;3.63;1.48;;;14.40;99.90;;;;;;6155103;28;20059;-82
2022/11/09 05:59:06;;;;;;;4.07;1.98;;;14.40;99.90;;;;;;6153780;29;20039;-82
2022/11/09 06:02:07;;;;;;;4.95;1.45;;;14.40;99.90;;;;;;6154074;28;20051;-82
2022/11/09 06:05:09;;;;;;;4.28;1.63;;;14.40;99.90;;;;;;6154050;28;20083;-82
2022/11/09 06:08:14;;;;;;;3.97;1.45;;;14.30;99.90;;;;;;6155170;28;20055;-83
2022/11/09 06:11:17;;;;;;;2.60;1.23;;;14.20;99.90;;;;;;6154918;29;20062;-83
2022/11/09 06:14:19;;;;;;;4.97;1.58;;;14.20;99.90;;;;;;6152240;28;20567;-83
2022/11/09 06:17:20;;;;;;;4.45;1.05;;;14.20;99.90;;;;;;6151279;28;20417;-83
2022/11/09 06:20:23;;;;;;;3.10;2.15;;;14.20;99.90;;;;;;6152753;28;20131;-83
2022/11/09 06:23:25;;;;;;;5.55;1.13;;;14.10;99.90;;;;;;6153289;28;20055;-82
2022/11/09 06:26:28;;;;;;;1.60;0.75;;;14.10;99.90;;;;;;6152525;28;20055;-83
2022/11/09 06:29:30;;;;;;;2.50;0.70;;;14.00;99.90;;;;;;6152346;28;20043;-82
2022/11/09 06:32:32;;;;;;;4.10;1.23;;;14.00;99.90;;;;;;6151505;28;20043;-83
2022/11/09 06:35:33;;;;;;;2.55;0.57;;;13.90;99.90;;;;;;6152695;29;20051;-83
2022/11/09 06:38:35;;;;;;;4.53;1.00;;;13.80;99.90;;;;;;6151728;28;20043;-83
2022/11/09 06:41:38;;;;;;;2.55;0.90;;;13.80;99.90;;;;;;6151782;28;20062;-82
2022/11/09 06:44:40;;;;;;;1.52;0.80;;;13.70;99.90;;;;;;6151245;28;20420;-83
2022/11/09 06:47:41;;;;;;;2.72;0.90;;;13.70;99.90;;;;;;6152263;29;20401;-82
2022/11/09 06:50:43;;;;;;;7.25;1.00;;;13.60;99.90;;;;;;6151378;28;20132;-82
2022/11/09 06:53:45;;;;;;;7.97;1.00;;;13.60;99.90;;;;;;6151650;28;20055;-83
2022/11/09 06:56:48;;;;;;;4.65;0.93;;;13.70;99.90;;;;;;6151940;28;20051;-83
2022/11/09 06:59:50;;;;;;;4.05;0.70;;;13.60;99.90;;;;;;6151251;28;20043;-82
2022/11/09 07:02:51;;;;;;;3.22;0.70;;;13.70;99.90;;;;;;6150174;28;20066;-83
2022/11/09 07:05:53;;;;;;;5.53;0.80;;;13.70;99.90;;;;;;6151468;28;20050;-84
2022/11/09 07:08:55;;;;;;;4.00;0.82;;;13.60;99.90;;;;;;6151456;28;20045;-83
2022/11/09 07:11:58;;;;;;;1.35;0.45;;;13.70;99.90;;;;;;6151434;28;20047;-83
2022/11/09 07:15:00;;;;;;;5.40;0.65;;;13.70;99.90;;;;;;6175184;28;20051;-82
2022/11/09 07:18:04;;;;;;;1.60;0.90;;;13.70;99.90;;;;;;6175178;28;20055;-85
2022/11/09 07:21:06;;;;;;;5.97;0.80;;;13.70;99.90;;;;;;6173919;28;20046;-85
2022/11/09 07:24:08;;;;;;;2.95;1.00;;;13.80;99.90;;;;;;6174367;28;20055;-85
2022/11/09 07:27:11;;;;;;;3.35;0.98;;;13.80;99.90;;;;;;6174356;28;20051;-84
2022/11/09 07:30:13;;;;;;;3.92;1.40;;;13.90;99.90;;;;;;6174141;28;20444;-82
2022/11/09 07:33:17;;;;;;;3.38;1.25;;;14.00;99.90;;;;;;6174695;28;20073;-82
2022/11/09 07:36:18;;;;;;;4.43;1.23;;;14.00;99.90;;;;;;6156290;28;20058;-82
2022/11/09 07:39:20;;;;;;;2.88;1.27;;;14.10;99.90;;;;;;6188937;28;20059;-81
2022/11/09 07:42:23;;;;;;;3.15;1.10;;;14.10;99.90;;;;;;6188793;28;20047;-82
2022/11/09 07:45:26;;;;;;;6.63;1.40;;;14.20;99.90;;;;;;6199334;28;20050;-82
2022/11/09 07:48:27;;;;;;;6.13;1.52;;;14.20;99.90;;;;;;6198925;28;20057;-82
2022/11/09 07:51:29;;;;;;;9.48;1.35;;;14.30;99.90;;;;;;6198504;28;20051;-81
2022/11/09 07:54:31;;;;;;;4.65;1.65;;;14.40;99.90;;;;;;6198587;28;20050;-82
2022/11/09 07:57:34;;;;;;;2.83;1.35;;;14.50;99.90;;;;;;6198400;28;20054;-82
2022/11/09 08:00:37;;;;;;;2.72;1.48;;;14.50;99.90;;;;;;6191383;28;20046;-82
2022/11/09 08:03:39;;;;;;;2.85;1.23;;;14.60;99.90;;;;;;6174192;28;20058;-81
2022/11/09 08:06:41;;;;;;;2.50;0.73;;;14.80;99.90;;;;;;6183721;28;20057;-81
2022/11/09 08:09:42;;;;;;;3.78;1.58;;;15.00;99.90;;;;;;6190567;28;20475;-81
2022/11/09 08:12:52;;;;;;;6.97;1.33;;;15.20;99.90;;;;;;6199881;28;20042;-82
2022/11/09 08:15:53;;;;;;;3.53;1.55;;;15.50;99.90;;;;;;6198636;28;20077;-82
2022/11/09 08:18:55;;;;;;;3.92;1.80;;;15.60;99.90;;;;;;6197638;28;20092;-82
2022/11/09 08:21:57;;;;;;;4.72;1.30;;;15.70;99.90;;;;;;6197127;28;20054;-82
2022/11/09 08:24:58;;;;;;;2.40;1.25;;;15.90;99.90;;;;;;6197144;28;20054;-82
2022/11/09 08:28:02;;;;;;;1.95;1.38;;;15.90;99.90;;;;;;6197010;28;20054;-82
2022/11/09 08:31:06;;;;;;;5.03;1.23;;;15.90;99.90;;;;;;6201872;28;20046;-83
2022/11/09 08:34:12;;;;;;;3.53;1.15;;;16.00;99.90;;;;;;6199593;28;20045;-82
2022/11/09 08:37:14;;;;;;;1.65;0.77;;;16.20;99.90;;;;;;6189468;28;20051;-81
2022/11/09 08:40:18;;;;;;;2.03;0.80;;;16.20;99.90;;;;;;6196599;28;20050;-82
2022/11/09 08:43:21;;;;;;;4.15;0.77;;;16.30;99.90;;;;;;6202610;28;20050;-83
2022/11/09 08:46:23;;;;;;;1.67;1.15;;;16.40;99.90;;;;;;6206565;28;20054;-82
2022/11/09 08:49:25;;;;;;;4.15;0.80;;;16.50;99.90;;;;;;6205812;28;20058;-82
2022/11/09 08:52:26;;;;;;;7.32;0.90;;;16.60;99.90;;;;;;6206592;28;20046;-82
2022/11/09 08:55:28;;;;;;;4.18;0.88;;;16.60;99.90;;;;;;6213403;28;20054;-82
2022/11/09 08:58:31;;;;;;;3.47;0.80;;;16.60;99.90;;;;;;6210826;28;20050;-83
2022/11/09 09:01:33;;;;;;;4.63;0.80;;;16.60;99.90;;;;;;6210569;28;20062;-82
2022/11/09 09:04:35;;;;;;;2.70;0.60;;;16.60;99.90;;;;;;6188724;28;20050;-83
2022/11/09 09:07:36;;;;;;;2.80;0.50;;;16.60;99.90;;;;;;6198242;28;20058;-84
2022/11/09 09:10:39;;;;;;;2.42;0.60;;;16.70;99.90;;;;;;6189772;28;20051;-84
2022/11/09 09:13:42;;;;;;;1.80;0.50;;;16.70;99.90;;;;;;6190420;28;20138;-83
2022/11/09 09:16:44;;;;;;;1.13;0.70;;;16.90;99.90;;;;;;6191404;28;20051;-83
2022/11/09 09:19:45;;;;;;;1.35;0.60;;;17.00;99.90;;;;;;6190074;28;20038;-83
2022/11/09 09:22:47;;;;;;;3.25;0.50;;;17.30;99.90;;;;;;6188827;28;20050;-83
2022/11/09 09:25:49;;;;;;;1.42;0.47;;;17.50;99.90;;;;;;6189550;28;20050;-83
2022/11/09 09:28:52;;;;;;;2.33;0.68;;;17.70;99.90;;;;;;6191112;28;20058;-83
2022/11/09 09:31:54;;;;;;;3.63;0.85;;;18.00;99.90;;;;;;6194088;28;20058;-84
2022/11/09 09:34:55;;;;;;;0.32;0.20;;;18.30;99.90;;;;;;6193687;28;20062;-83
2022/11/09 09:37:57;;;;;;;1.40;0.22;;;18.70;99.90;;;;;;6192803;28;20050;-83
2022/11/09 09:41:01;;;;;;;2.33;0.43;;;18.70;99.90;;;;;;6187926;28;20057;-83
2022/11/09 09:44:20;;;;;;;2.08;0.30;;;19.10;99.90;;;;;;6187355;28;20113;-83
2022/11/09 09:47:27;;;;;;;1.58;0.50;;;19.20;99.90;;;;;;6187983;28;20058;-83
2022/11/09 09:50:36;;;;;;;2.53;0.50;;;19.30;99.90;;;;;;6187400;28;20051;-83
2022/11/09 09:53:44;;;;;;;0.70;0.43;;;19.30;99.90;;;;;;6186739;28;20051;-83
2022/11/09 09:56:49;;;;;;;5.68;0.70;;;19.30;99.90;;;;;;6186851;28;20047;-83
2022/11/09 09:59:54;;;;;;;3.22;0.70;;;19.30;99.90;;;;;;6186864;28;20046;-83
2022/11/09 10:02:56;;;;;;;1.05;0.47;;;19.40;99.90;;;;;;6186550;28;20050;-83
2022/11/09 10:06:06;;;;;;;3.15;0.30;;;19.70;99.90;;;;;;6185215;28;20043;-84
2022/11/09 10:09:27;;;;;;;3.50;0.60;;;20.00;99.90;;;;;;6187134;28;20047;-84
2022/11/09 10:12:38;;;;;;;3.85;0.75;;;20.20;99.90;;;;;;6187033;28;20046;-84
2022/11/09 10:15:47;;;;;;;4.90;0.98;;;20.40;99.90;;;;;;6187403;28;20050;-84
2022/11/09 10:19:07;;;;;;;2.83;0.93;;;20.50;99.90;;;;;;6186020;28;20126;-83
2022/11/09 10:22:16;;;;;;;4.55;0.65;;;20.50;99.90;;;;;;6186749;28;20097;-84
2022/11/09 10:25:23;;;;;;;2.33;0.93;;;20.60;99.90;;;;;;6185928;28;20058;-83
2022/11/09 10:28:28;;;;;;;0.65;0.43;;;20.70;99.90;;;;;;6186236;28;20054;-84
2022/11/09 10:31:33;;;;;;;1.67;0.55;;;20.70;99.90;;;;;;6186051;28;20047;-83
2022/11/09 10:34:42;;;;;;;2.83;0.65;;;20.80;99.90;;;;;;6184753;28;20047;-83
2022/11/09 10:37:47;;;;;;;1.10;0.57;;;20.70;99.90;;;;;;6182674;28;20051;-83
2022/11/09 10:40:53;;;;;;;1.33;0.60;;;20.60;99.90;;;;;;6185557;28;20046;-83
2022/11/09 10:43:54;;;;;;;2.58;1.00;;;20.50;99.90;;;;;;6186081;28;20058;-83
2022/11/09 10:47:07;;;;;;;3.70;0.85;;;20.50;99.90;;;;;;6185450;28;20050;-84
2022/11/09 10:50:22;;;;;;;2.67;0.80;;;20.50;99.90;;;;;;6184642;28;20046;-83
2022/11/09 10:53:26;;;;;;;2.78;0.55;;;20.60;99.90;;;;;;6185936;28;20420;-84
2022/11/09 10:56:27;;;;;;;2.45;0.70;;;20.80;99.90;;;;;;6186029;28;20050;-84
2022/11/09 10:59:51;;;;;;;0.82;0.35;;;20.80;99.90;;;;;;6186043;28;20527;-83
2022/11/09 11:02:54;;;;;;;0.68;0.40;;;20.70;99.90;;;;;;6180607;28;20059;-84
2022/11/09 11:05:58;;;;;;;1.90;0.65;;;20.60;99.90;;;;;;6184053;28;20624;-84
2022/11/09 11:09:15;;;;;;;1.95;0.50;;;20.60;99.90;;;;;;6182137;28;20054;-83
2022/11/09 11:12:19;;;;;;;1.85;0.47;;;20.80;99.90;;;;;;6194918;28;20472;-83
2022/11/09 11:15:28;;;;;;;1.75;0.52;;;20.80;99.90;;;;;;6180616;28;20051;-83
2022/11/09 11:18:35;;;;;;;1.33;0.28;;;20.80;99.90;;;;;;6181181;28;20038;-83
2022/11/09 11:21:37;;;;;;;2.45;0.47;;;20.90;99.90;;;;;;6200658;28;20050;-83
2022/11/09 11:24:42;;;;;;;1.42;0.65;;;20.90;99.90;;;;;;6206211;28;20427;-85
2022/11/09 11:27:49;;;;;;;2.38;0.80;;;20.80;99.90;;;;;;6205421;28;20061;-83
2022/11/09 11:30:51;;;;;;;0.90;0.40;;;20.80;99.90;;;;;;6206258;28;20043;-83
2022/11/09 11:33:55;;;;;;;1.88;0.60;;;20.70;99.90;;;;;;6206650;28;20046;-83
2022/11/09 11:37:09;;;;;;;1.35;0.47;;;20.70;99.90;;;;;;6209997;28;20051;-83
2022/11/09 11:40:17;;;;;;;2.10;0.73;;;20.50;99.90;;;;;;6207056;28;20045;-83
2022/11/09 11:43:29;;;;;;;1.38;0.60;;;20.50;99.90;;;;;;6198913;28;20702;-84
2022/11/09 11:46:40;;;;;;;4.25;0.82;;;20.50;99.90;;;;;;6207222;28;20051;-84
2022/11/09 11:50:03;;;;;;;1.25;0.55;;;20.70;99.90;;;;;;6208225;28;20046;-84
2022/11/09 11:53:25;;;;;;;1.27;0.45;;;20.80;99.90;;;;;;6204422;28;20125;-84
2022/11/09 11:56:31;;;;;;;1.02;0.43;;;20.80;99.90;;;;;;6208938;28;20038;-83
2022/11/09 12:00:03;;;;;;;1.20;0.80;;;20.80;99.90;;;;;;6208072;28;20042;-83
2022/11/09 12:03:51;;;;;;;1.30;0.85;;;20.60;99.90;;;;;;6207031;28;20051;-84
2022/11/09 12:07:15;;;;;;;2.22;0.70;;;20.60;99.90;;;;;;6133946;28;20545;-84
2022/11/09 12:10:31;;;;;;;2.35;0.55;;;20.50;99.90;;;;;;6203142;28;20038;-83
2022/11/09 12:13:48;;;;;;;1.75;0.68;;;20.40;99.90;;;;;;6187412;28;20065;-84
2022/11/09 12:16:58;;;;;;;3.22;0.98;;;20.20;99.90;;;;;;6155282;28;20047;-84
2022/11/09 12:20:15;;;;;;;1.20;0.82;;;20.20;99.90;;;;;;6155423;28;20047;-83
2022/11/09 12:23:32;;;;;;;1.17;0.60;;;20.10;99.90;;;;;;6155929;28;20051;-83
2022/11/09 12:26:53;;;;;;;4.00;1.52;;;19.90;99.90;;;;;;6156006;28;20047;-83
2022/11/09 12:30:02;;;;;;;1.23;0.60;;;19.90;99.90;;;;;;6154150;28;20050;-82
2022/11/09 12:33:10;;;;;;;0.85;0.43;;;19.70;99.90;;;;;;6156660;28;20543;-84
2022/11/09 12:36:16;;;;;;;2.88;0.70;;;19.70;99.90;;;;;;6156840;28;20493;-84
2022/11/09 12:39:25;;;;;;;4.53;1.27;;;19.70;99.90;;;;;;6154906;28;20064;-82
2022/11/09 12:42:34;;;;;;;2.33;1.60;;;19.60;99.90;;;;;;6194037;28;20471;-83
2022/11/09 12:45:38;;;;;;;2.65;1.60;;;19.50;99.90;;;;;;6203441;28;20053;-83
2022/11/09 12:48:40;;;;;;;4.47;1.48;;;19.50;99.90;;;;;;6202926;28;20053;-84
2022/11/09 12:51:42;;;;;;;7.78;1.65;;;19.50;99.90;;;;;;6203211;28;20062;-84
2022/11/09 12:54:47;;;;;;;3.03;1.33;;;19.50;99.90;;;;;;6202698;28;20487;-83
2022/11/09 12:57:49;;;;;;;4.53;0.95;;;19.40;99.90;;;;;;6204048;28;20050;-84
2022/11/09 13:00:54;;;;;;;1.95;1.02;;;19.40;99.90;;;;;;6203349;28;20125;-84
2022/11/09 13:03:58;;;;;;;14.70;8.40;;;19.30;99.90;;;;;;6204116;28;20056;-84
2022/11/09 13:07:31;;;;;;;8.75;3.63;;;19.30;99.90;;;;;;6203625;28;20129;-85
2022/11/09 13:10:37;;;;;;;2.38;1.23;;;19.30;99.90;;;;;;6192772;28;20049;-83
2022/11/09 13:13:38;;;;;;;2.25;1.30;;;19.40;99.90;;;;;;6187056;28;20055;-84
2022/11/09 13:16:40;;;;;;;6.18;1.67;;;19.20;99.90;;;;;;6177905;28;20058;-84
2022/11/09 13:19:55;;;;;;;1.75;1.00;;;19.20;99.90;;;;;;6181685;28;20051;-84
2022/11/09 13:23:00;;;;;;;6.60;3.38;;;19.20;99.90;;;;;;6187324;28;20050;-82
2022/11/09 13:26:04;;;;;;;3.78;2.45;;;19.10;99.90;;;;;;6202094;28;20058;-83
2022/11/09 13:29:21;;;;;;;3.03;1.60;;;19.00;99.90;;;;;;6201115;28;20053;-83
2022/11/09 13:32:24;;;;;;;5.10;1.33;;;19.00;99.90;;;;;;6200826;28;20407;-83
2022/11/09 13:36:11;;;;;;;2.60;1.00;;;18.80;99.90;;;;;;6202100;28;20050;-83
2022/11/09 13:39:28;;;;;;;4.03;1.00;;;18.80;99.90;;;;;;6201719;28;20053;-83
2022/11/09 13:42:33;;;;;;;2.05;1.20;;;18.70;99.90;;;;;;6196865;28;20046;-84
2022/11/09 13:45:38;;;;;;;5.00;1.98;;;18.60;99.90;;;;;;6207708;28;20053;-84
2022/11/09 13:48:42;;;;;;;6.85;1.88;;;18.60;99.90;;;;;;6206491;28;20542;-83
2022/11/09 13:51:46;;;;;;;1.95;0.95;;;18.60;99.90;;;;;;6207244;28;20065;-84
2022/11/09 13:54:54;;;;;;;3.90;1.27;;;18.50;99.90;;;;;;6206044;28;20042;-83
2022/11/09 13:58:01;;;;;;;2.42;0.98;;;18.30;99.90;;;;;;6206201;28;20134;-83
2022/11/09 14:01:03;;;;;;;4.03;1.08;;;18.30;99.90;;;;;;6207202;28;20049;-83
2022/11/09 14:04:04;;;;;;;4.03;1.60;;;18.10;99.90;;;;;;6207084;28;20554;-83
2022/11/09 14:07:10;;;;;;;4.97;2.17;;;18.10;99.90;;;;;;6206810;28;20419;-83
2022/11/09 14:10:20;;;;;;;8.00;2.17;;;18.10;99.90;;;;;;6219562;28;20061;-83
2022/11/09 14:13:50;;;;;;;1.27;1.00;;;17.90;99.90;;;;;;6213311;28;20048;-84
2022/11/09 14:16:59;;;;;;;5.22;1.20;;;17.80;99.90;;;;;;6192958;28;20093;-83
2022/11/09 14:20:10;;;;;;;3.17;1.20;;;17.70;99.90;;;;;;6184712;28;20051;-83
2022/11/09 14:23:17;;;;;;;2.80;1.33;;;17.60;99.90;;;;;;6184704;28;20039;-83
2022/11/09 14:26:20;;;;;;;3.35;1.23;;;17.70;99.90;;;;;;6183564;28;20043;-83
2022/11/09 14:29:25;;;;;;;1.95;1.00;;;17.50;99.90;;;;;;6182671;28;20101;-83
2022/11/09 14:32:30;;;;;;;2.85;0.95;;;17.50;99.90;;;;;;6182449;28;20061;-83
2022/11/09 14:35:33;;;;;;;1.40;0.88;;;17.40;99.90;;;;;;6182547;28;20070;-83
2022/11/09 14:38:46;;;;;;;3.88;1.10;;;17.40;99.90;;;;;;6182318;28;20202;-83
2022/11/09 14:41:49;;;;;;;10.10;5.30;;;17.30;99.90;;;;;;6196255;23;20408;-85
2022/11/09 14:44:52;;;;;;;2.53;1.30;;;17.20;99.90;;;;;;6178536;28;20055;-86
2022/11/09 14:47:58;;;;;;;2.83;1.52;;;17.20;99.90;;;;;;6185113;28;20134;-84
2022/11/09 14:51:18;;;;;;;3.10;1.77;;;17.20;99.90;;;;;;6194299;28;20099;-86
2022/11/09 14:54:24;;;;;;;2.42;1.52;;;17.10;99.90;;;;;;6204482;28;20054;-85
2022/11/09 14:57:27;;;;;;;4.72;2.35;;;17.00;99.90;;;;;;6180278;28;20074;-85
2022/11/09 15:00:42;;;;;;;3.55;1.73;;;17.00;99.90;;;;;;6187185;28;20039;-84
2022/11/09 15:03:44;;;;;;;5.03;1.63;;;16.90;99.90;;;;;;6187144;28;20055;-86
2022/11/09 15:06:49;;;;;;;6.70;2.25;;;17.00;99.90;;;;;;6189212;28;20046;-85
2022/11/09 15:09:55;;;;;;;3.88;2.08;;;16.80;99.90;;;;;;6187375;28;20053;-86
2022/11/09 15:13:00;;;;;;;4.00;1.95;;;16.70;99.90;;;;;;6201638;28;20046;-85
2022/11/09 15:16:05;;;;;;;4.78;1.48;;;16.60;99.90;;;;;;6192475;28;20047;-86
2022/11/09 15:19:20;;;;;;;4.63;1.33;;;16.50;99.90;;;;;;6183364;28;20058;-86
2022/11/09 15:22:49;;;;;;;5.05;1.65;;;16.40;99.90;;;;;;6182983;28;20053;-87
2022/11/09 15:25:55;;;;;;;3.30;1.60;;;16.30;99.90;;;;;;6182680;28;20046;-85
2022/11/09 15:28:57;;;;;;;1.65;0.95;;;16.30;99.90;;;;;;6181929;28;20047;-85
2022/11/09 15:32:10;;;;;;;6.32;1.10;;;16.20;99.90;;;;;;6200292;28;20057;-85
2022/11/09 15:35:17;;;;;;;4.38;0.90;;;16.10;99.90;;;;;;6209562;28;20050;-85
2022/11/09 15:38:35;;;;;;;1.77;1.05;;;16.00;99.90;;;;;;6207380;28;20056;-85
2022/11/09 15:41:40;;;;;;;1.45;1.10;;;15.90;99.90;;;;;;6194475;28;20054;-86
2022/11/09 15:44:42;;;;;;;3.08;1.67;;;15.90;99.90;;;;;;6160223;28;20054;-85
2022/11/09 15:47:52;;;;;;;4.85;1.40;;;15.80;99.90;;;;;;6160402;28;20055;-85
2022/11/09 15:58:12;;;;;;;3.30;1.50;;;15.60;99.90;;;;;;6145752;28;20043;-87
2022/11/09 16:02:18;;;;;;;3.67;1.67;;;15.80;99.90;;;;;;6165416;28;20098;-86
2022/11/09 16:05:36;;;;;;;4.30;1.20;;;15.70;99.90;;;;;;6135021;28;20065;-86
2022/11/09 16:33:16;;;;;;;6.18;1.90;;;15.80;99.90;;;;;;6159881;28;20054;-85
2022/11/09 16:40:08;;;;;;;6.15;2.53;;;15.80;99.90;;;;;;6151074;28;20047;-85
2022/11/09 16:43:12;;;;;;;7.70;2.22;;;15.80;99.90;;;;;;6165086;28;20429;-85